sensor_id;sensor_type;location;lat;lon;timestamp;temperature;humidity
55828;DHT22;41758;51.992;5.890;2022-09-24T00:00:50;20.30;71.30
55828;DHT22;41758;51.992;5.890;2022-09-24T00:03:19;20.30;71.30
55828;DHT22;41758;51.992;5.890;2022-09-24T00:05:45;20.30;71.50
55828;DHT22;41758;51.992;5.890;2022-09-24T00:08:13;20.20;71.40
55828;DHT22;41758;51.992;5.890;2022-09-24T00:10:41;20.20;71.50
55828;DHT22;41758;51.992;5.890;2022-09-24T00:13:09;20.20;71.50
55828;DHT22;41758;51.992;5.890;2022-09-24T00:15:45;20.20;71.50
55828;DHT22;41758;51.992;5.890;2022-09-24T00:18:12;20.10;71.40
55828;DHT22;41758;51.992;5.890;2022-09-24T00:20:39;20.20;71.50
55828;DHT22;41758;51.992;5.890;2022-09-24T00:23:07;20.10;71.50
55828;DHT22;41758;51.992;5.890;2022-09-24T00:25:33;20.20;71.60
55828;DHT22;41758;51.992;5.890;2022-09-24T00:28:16;20.10;71.50
55828;DHT22;41758;51.992;5.890;2022-09-24T00:30:43;20.10;71.60
55828;DHT22;41758;51.992;5.890;2022-09-24T00:33:10;20.10;71.50
55828;DHT22;41758;51.992;5.890;2022-09-24T00:35:37;20.10;71.70
55828;DHT22;41758;51.992;5.890;2022-09-24T00:38:05;20.10;71.70
55828;DHT22;41758;51.992;5.890;2022-09-24T00:40:34;20.10;71.20
55828;DHT22;41758;51.992;5.890;2022-09-24T00:43:00;20.00;71.60
55828;DHT22;41758;51.992;5.890;2022-09-24T00:45:27;20.10;71.70
55828;DHT22;41758;51.992;5.890;2022-09-24T00:47:53;20.10;71.70
55828;DHT22;41758;51.992;5.890;2022-09-24T00:50:29;20.10;71.70
55828;DHT22;41758;51.992;5.890;2022-09-24T00:53:18;20.10;71.70
55828;DHT22;41758;51.992;5.890;2022-09-24T00:55:48;20.10;71.70
55828;DHT22;41758;51.992;5.890;2022-09-24T00:58:15;20.10;71.70
55828;DHT22;41758;51.992;5.890;2022-09-24T01:00:41;20.10;71.80
55828;DHT22;41758;51.992;5.890;2022-09-24T01:03:20;20.10;71.70
55828;DHT22;41758;51.992;5.890;2022-09-24T01:05:47;20.10;71.80
55828;DHT22;41758;51.992;5.890;2022-09-24T01:08:14;20.00;71.80
55828;DHT22;41758;51.992;5.890;2022-09-24T01:15:59;20.10;71.80
55828;DHT22;41758;51.992;5.890;2022-09-24T01:18:38;20.10;71.70
55828;DHT22;41758;51.992;5.890;2022-09-24T01:21:10;20.00;71.80
55828;DHT22;41758;51.992;5.890;2022-09-24T01:23:43;20.10;71.80
55828;DHT22;41758;51.992;5.890;2022-09-24T01:32:03;20.10;71.80
55828;DHT22;41758;51.992;5.890;2022-09-24T01:34:44;20.10;71.90
55828;DHT22;41758;51.992;5.890;2022-09-24T01:37:14;20.10;71.80
55828;DHT22;41758;51.992;5.890;2022-09-24T01:39:43;20.00;71.90
55828;DHT22;41758;51.992;5.890;2022-09-24T01:42:11;20.00;71.90
55828;DHT22;41758;51.992;5.890;2022-09-24T01:44:38;20.00;71.90
55828;DHT22;41758;51.992;5.890;2022-09-24T01:47:11;20.00;71.90
55828;DHT22;41758;51.992;5.890;2022-09-24T01:49:40;20.00;71.90
55828;DHT22;41758;51.992;5.890;2022-09-24T01:52:08;20.00;71.90
55828;DHT22;41758;51.992;5.890;2022-09-24T01:54:40;20.00;71.90
55828;DHT22;41758;51.992;5.890;2022-09-24T01:57:10;20.00;71.90
55828;DHT22;41758;51.992;5.890;2022-09-24T01:59:47;20.00;71.80
55828;DHT22;41758;51.992;5.890;2022-09-24T02:02:32;20.00;71.80
55828;DHT22;41758;51.992;5.890;2022-09-24T02:05:23;20.10;71.90
55828;DHT22;41758;51.992;5.890;2022-09-24T02:10:20;20.00;71.90
55828;DHT22;41758;51.992;5.890;2022-09-24T02:12:50;20.00;71.80
55828;DHT22;41758;51.992;5.890;2022-09-24T02:15:31;20.00;71.80
55828;DHT22;41758;51.992;5.890;2022-09-24T02:18:02;20.00;71.80
55828;DHT22;41758;51.992;5.890;2022-09-24T02:20:30;20.00;71.80
55828;DHT22;41758;51.992;5.890;2022-09-24T02:22:56;20.00;71.90
55828;DHT22;41758;51.992;5.890;2022-09-24T02:25:42;20.00;71.90
55828;DHT22;41758;51.992;5.890;2022-09-24T02:28:09;20.00;71.80
55828;DHT22;41758;51.992;5.890;2022-09-24T02:30:42;20.00;71.90
55828;DHT22;41758;51.992;5.890;2022-09-24T02:33:10;20.00;71.90
55828;DHT22;41758;51.992;5.890;2022-09-24T02:35:57;20.00;71.90
55828;DHT22;41758;51.992;5.890;2022-09-24T02:38:23;20.00;71.90
55828;DHT22;41758;51.992;5.890;2022-09-24T02:40:49;20.00;71.90
55828;DHT22;41758;51.992;5.890;2022-09-24T02:43:15;20.00;71.90
55828;DHT22;41758;51.992;5.890;2022-09-24T02:45:40;20.00;71.90
55828;DHT22;41758;51.992;5.890;2022-09-24T02:48:06;20.00;71.80
55828;DHT22;41758;51.992;5.890;2022-09-24T02:50:32;20.00;71.80
55828;DHT22;41758;51.992;5.890;2022-09-24T02:52:58;20.00;71.80
55828;DHT22;41758;51.992;5.890;2022-09-24T02:55:24;20.00;71.90
55828;DHT22;41758;51.992;5.890;2022-09-24T02:57:49;20.00;71.90
55828;DHT22;41758;51.992;5.890;2022-09-24T03:00:15;20.00;71.80
55828;DHT22;41758;51.992;5.890;2022-09-24T03:02:42;20.00;71.90
55828;DHT22;41758;51.992;5.890;2022-09-24T03:05:08;20.00;71.80
55828;DHT22;41758;51.992;5.890;2022-09-24T03:07:35;20.00;71.70
55828;DHT22;41758;51.992;5.890;2022-09-24T03:10:01;20.00;71.80
55828;DHT22;41758;51.992;5.890;2022-09-24T03:12:26;20.00;71.90
55828;DHT22;41758;51.992;5.890;2022-09-24T03:14:52;20.00;71.90
55828;DHT22;41758;51.992;5.890;2022-09-24T03:17:17;20.00;71.90
55828;DHT22;41758;51.992;5.890;2022-09-24T03:19:43;20.00;71.90
55828;DHT22;41758;51.992;5.890;2022-09-24T03:22:09;20.00;71.90
55828;DHT22;41758;51.992;5.890;2022-09-24T03:24:34;20.10;71.80
55828;DHT22;41758;51.992;5.890;2022-09-24T03:27:00;20.00;71.70
55828;DHT22;41758;51.992;5.890;2022-09-24T03:29:26;20.00;71.80
55828;DHT22;41758;51.992;5.890;2022-09-24T03:32:11;20.00;71.80
55828;DHT22;41758;51.992;5.890;2022-09-24T03:34:37;20.00;71.70
55828;DHT22;41758;51.992;5.890;2022-09-24T03:37:03;20.00;71.70
55828;DHT22;41758;51.992;5.890;2022-09-24T03:39:28;20.00;71.40
55828;DHT22;41758;51.992;5.890;2022-09-24T03:41:54;20.00;71.60
55828;DHT22;41758;51.992;5.890;2022-09-24T03:44:20;20.00;71.60
55828;DHT22;41758;51.992;5.890;2022-09-24T03:46:45;20.00;71.70
55828;DHT22;41758;51.992;5.890;2022-09-24T03:49:11;20.00;71.70
55828;DHT22;41758;51.992;5.890;2022-09-24T03:51:37;19.90;71.80
55828;DHT22;41758;51.992;5.890;2022-09-24T03:54:02;20.00;71.80
55828;DHT22;41758;51.992;5.890;2022-09-24T03:56:28;20.00;71.80
55828;DHT22;41758;51.992;5.890;2022-09-24T03:58:53;20.00;71.80
55828;DHT22;41758;51.992;5.890;2022-09-24T04:01:19;20.00;71.70
55828;DHT22;41758;51.992;5.890;2022-09-24T04:03:46;20.00;71.70
55828;DHT22;41758;51.992;5.890;2022-09-24T04:06:11;20.00;71.80
55828;DHT22;41758;51.992;5.890;2022-09-24T04:08:37;20.00;71.80
55828;DHT22;41758;51.992;5.890;2022-09-24T04:11:03;20.00;71.70
55828;DHT22;41758;51.992;5.890;2022-09-24T04:13:29;20.00;71.80
55828;DHT22;41758;51.992;5.890;2022-09-24T04:15:55;20.00;71.80
55828;DHT22;41758;51.992;5.890;2022-09-24T04:18:25;20.00;71.80
55828;DHT22;41758;51.992;5.890;2022-09-24T04:20:55;20.00;71.80
55828;DHT22;41758;51.992;5.890;2022-09-24T04:23:21;20.00;71.80
55828;DHT22;41758;51.992;5.890;2022-09-24T04:25:47;20.00;71.70
55828;DHT22;41758;51.992;5.890;2022-09-24T04:28:12;20.00;71.70
55828;DHT22;41758;51.992;5.890;2022-09-24T04:30:38;20.00;71.80
55828;DHT22;41758;51.992;5.890;2022-09-24T04:33:04;20.00;71.70
55828;DHT22;41758;51.992;5.890;2022-09-24T04:35:32;20.00;71.70
55828;DHT22;41758;51.992;5.890;2022-09-24T04:38:00;20.00;71.60
55828;DHT22;41758;51.992;5.890;2022-09-24T04:40:26;20.00;71.60
55828;DHT22;41758;51.992;5.890;2022-09-24T04:42:52;19.90;71.60
55828;DHT22;41758;51.992;5.890;2022-09-24T04:45:18;19.90;71.60
55828;DHT22;41758;51.992;5.890;2022-09-24T04:47:46;19.90;71.50
55828;DHT22;41758;51.992;5.890;2022-09-24T04:50:17;19.90;71.50
55828;DHT22;41758;51.992;5.890;2022-09-24T04:52:43;19.90;71.70
55828;DHT22;41758;51.992;5.890;2022-09-24T04:55:09;19.90;71.70
55828;DHT22;41758;51.992;5.890;2022-09-24T04:57:35;19.90;71.60
55828;DHT22;41758;51.992;5.890;2022-09-24T05:00:07;19.90;71.60
55828;DHT22;41758;51.992;5.890;2022-09-24T05:02:33;19.90;71.70
55828;DHT22;41758;51.992;5.890;2022-09-24T05:04:59;19.90;71.70
55828;DHT22;41758;51.992;5.890;2022-09-24T05:07:24;19.90;71.70
55828;DHT22;41758;51.992;5.890;2022-09-24T05:09:50;19.90;71.50
55828;DHT22;41758;51.992;5.890;2022-09-24T05:12:16;19.90;71.60
55828;DHT22;41758;51.992;5.890;2022-09-24T05:14:43;19.90;71.60
55828;DHT22;41758;51.992;5.890;2022-09-24T05:17:08;19.90;71.40
55828;DHT22;41758;51.992;5.890;2022-09-24T05:19:34;19.90;71.50
55828;DHT22;41758;51.992;5.890;2022-09-24T05:22:00;19.90;71.50
55828;DHT22;41758;51.992;5.890;2022-09-24T05:24:25;19.90;71.70
55828;DHT22;41758;51.992;5.890;2022-09-24T05:26:51;20.00;71.70
55828;DHT22;41758;51.992;5.890;2022-09-24T05:29:42;20.00;71.60
55828;DHT22;41758;51.992;5.890;2022-09-24T05:32:16;20.00;71.60
55828;DHT22;41758;51.992;5.890;2022-09-24T05:34:42;19.90;71.70
55828;DHT22;41758;51.992;5.890;2022-09-24T05:37:09;19.90;71.70
55828;DHT22;41758;51.992;5.890;2022-09-24T05:39:35;19.90;71.70
55828;DHT22;41758;51.992;5.890;2022-09-24T05:42:01;19.90;71.80
55828;DHT22;41758;51.992;5.890;2022-09-24T05:44:31;19.90;71.90
55828;DHT22;41758;51.992;5.890;2022-09-24T05:46:57;20.00;71.90
55828;DHT22;41758;51.992;5.890;2022-09-24T05:49:23;19.90;71.80
55828;DHT22;41758;51.992;5.890;2022-09-24T05:51:50;19.90;71.80
55828;DHT22;41758;51.992;5.890;2022-09-24T05:54:16;20.00;71.90
55828;DHT22;41758;51.992;5.890;2022-09-24T05:56:43;20.00;71.80
55828;DHT22;41758;51.992;5.890;2022-09-24T05:59:08;20.00;71.80
55828;DHT22;41758;51.992;5.890;2022-09-24T06:01:34;20.00;71.80
55828;DHT22;41758;51.992;5.890;2022-09-24T06:04:00;20.00;71.80
55828;DHT22;41758;51.992;5.890;2022-09-24T06:06:26;19.90;71.70
55828;DHT22;41758;51.992;5.890;2022-09-24T06:08:52;20.00;71.70
55828;DHT22;41758;51.992;5.890;2022-09-24T06:11:18;20.00;71.70
55828;DHT22;41758;51.992;5.890;2022-09-24T06:13:47;20.00;71.80
55828;DHT22;41758;51.992;5.890;2022-09-24T06:16:13;20.00;71.90
55828;DHT22;41758;51.992;5.890;2022-09-24T06:18:41;19.90;71.90
55828;DHT22;41758;51.992;5.890;2022-09-24T06:21:09;20.00;71.90
55828;DHT22;41758;51.992;5.890;2022-09-24T06:23:36;20.00;72.00
55828;DHT22;41758;51.992;5.890;2022-09-24T06:26:03;20.00;71.90
55828;DHT22;41758;51.992;5.890;2022-09-24T06:28:29;20.00;71.90
55828;DHT22;41758;51.992;5.890;2022-09-24T06:30:57;20.00;71.90
55828;DHT22;41758;51.992;5.890;2022-09-24T06:33:23;20.00;71.70
55828;DHT22;41758;51.992;5.890;2022-09-24T06:35:49;20.00;71.80
55828;DHT22;41758;51.992;5.890;2022-09-24T06:38:17;20.00;71.90
55828;DHT22;41758;51.992;5.890;2022-09-24T06:40:43;20.00;71.90
55828;DHT22;41758;51.992;5.890;2022-09-24T06:43:18;20.00;71.90
55828;DHT22;41758;51.992;5.890;2022-09-24T06:45:44;20.00;71.10
55828;DHT22;41758;51.992;5.890;2022-09-24T06:48:12;19.90;71.30
55828;DHT22;41758;51.992;5.890;2022-09-24T06:50:40;19.90;71.40
55828;DHT22;41758;51.992;5.890;2022-09-24T06:53:07;19.90;71.40
55828;DHT22;41758;51.992;5.890;2022-09-24T06:55:34;20.00;71.50
55828;DHT22;41758;51.992;5.890;2022-09-24T06:58:05;19.90;71.30
55828;DHT22;41758;51.992;5.890;2022-09-24T07:00:31;20.00;71.20
55828;DHT22;41758;51.992;5.890;2022-09-24T07:02:57;19.90;71.20
55828;DHT22;41758;51.992;5.890;2022-09-24T07:05:22;20.00;71.40
55828;DHT22;41758;51.992;5.890;2022-09-24T07:07:51;20.00;71.50
55828;DHT22;41758;51.992;5.890;2022-09-24T07:10:17;20.00;71.50
55828;DHT22;41758;51.992;5.890;2022-09-24T07:12:45;20.00;71.50
55828;DHT22;41758;51.992;5.890;2022-09-24T07:15:10;20.00;71.60
55828;DHT22;41758;51.992;5.890;2022-09-24T07:17:36;20.00;71.60
55828;DHT22;41758;51.992;5.890;2022-09-24T07:20:05;20.00;71.70
55828;DHT22;41758;51.992;5.890;2022-09-24T07:22:31;20.00;71.70
55828;DHT22;41758;51.992;5.890;2022-09-24T07:24:57;20.00;71.70
55828;DHT22;41758;51.992;5.890;2022-09-24T07:27:22;20.00;71.70
55828;DHT22;41758;51.992;5.890;2022-09-24T07:29:48;20.10;71.80
55828;DHT22;41758;51.992;5.890;2022-09-24T07:32:15;20.10;71.80
55828;DHT22;41758;51.992;5.890;2022-09-24T07:34:44;20.00;71.80
55828;DHT22;41758;51.992;5.890;2022-09-24T07:37:10;20.10;71.90
55828;DHT22;41758;51.992;5.890;2022-09-24T07:39:36;20.10;71.90
55828;DHT22;41758;51.992;5.890;2022-09-24T07:42:04;20.10;71.90
55828;DHT22;41758;51.992;5.890;2022-09-24T07:44:30;20.10;72.00
55828;DHT22;41758;51.992;5.890;2022-09-24T07:46:56;20.10;71.90
55828;DHT22;41758;51.992;5.890;2022-09-24T07:49:22;20.10;71.90
55828;DHT22;41758;51.992;5.890;2022-09-24T07:51:49;20.00;71.80
55828;DHT22;41758;51.992;5.890;2022-09-24T07:54:15;20.00;71.80
55828;DHT22;41758;51.992;5.890;2022-09-24T07:56:41;20.00;71.80
55828;DHT22;41758;51.992;5.890;2022-09-24T07:59:07;20.00;71.80
55828;DHT22;41758;51.992;5.890;2022-09-24T08:01:35;20.00;71.90
55828;DHT22;41758;51.992;5.890;2022-09-24T08:04:02;20.00;71.80
55828;DHT22;41758;51.992;5.890;2022-09-24T08:06:29;20.10;71.90
55828;DHT22;41758;51.992;5.890;2022-09-24T08:08:58;20.10;71.90
55828;DHT22;41758;51.992;5.890;2022-09-24T08:11:24;20.10;71.70
55828;DHT22;41758;51.992;5.890;2022-09-24T08:13:50;20.10;71.90
55828;DHT22;41758;51.992;5.890;2022-09-24T08:16:16;20.00;71.90
55828;DHT22;41758;51.992;5.890;2022-09-24T08:18:46;20.10;72.00
55828;DHT22;41758;51.992;5.890;2022-09-24T08:21:12;20.10;72.00
55828;DHT22;41758;51.992;5.890;2022-09-24T08:23:41;20.10;72.00
55828;DHT22;41758;51.992;5.890;2022-09-24T08:26:11;20.10;72.00
55828;DHT22;41758;51.992;5.890;2022-09-24T08:28:38;20.10;72.00
55828;DHT22;41758;51.992;5.890;2022-09-24T08:31:06;20.10;72.00
55828;DHT22;41758;51.992;5.890;2022-09-24T08:33:34;20.10;71.90
55828;DHT22;41758;51.992;5.890;2022-09-24T08:36:02;20.00;72.00
55828;DHT22;41758;51.992;5.890;2022-09-24T08:38:28;20.10;72.00
55828;DHT22;41758;51.992;5.890;2022-09-24T08:46:47;20.10;72.00
55828;DHT22;41758;51.992;5.890;2022-09-24T08:49:37;20.10;72.20
55828;DHT22;41758;51.992;5.890;2022-09-24T08:54:49;20.00;71.80
55828;DHT22;41758;51.992;5.890;2022-09-24T08:57:17;20.00;72.00
55828;DHT22;41758;51.992;5.890;2022-09-24T08:59:49;20.00;71.90
55828;DHT22;41758;51.992;5.890;2022-09-24T09:02:40;20.00;72.00
55828;DHT22;41758;51.992;5.890;2022-09-24T09:05:20;20.10;71.90
55828;DHT22;41758;51.992;5.890;2022-09-24T09:10:37;19.90;71.00
55828;DHT22;41758;51.992;5.890;2022-09-24T09:15:39;19.90;71.80
55828;DHT22;41758;51.992;5.890;2022-09-24T09:20:49;20.00;71.60
55828;DHT22;41758;51.992;5.890;2022-09-24T09:23:18;20.00;71.60
55828;DHT22;41758;51.992;5.890;2022-09-24T09:25:51;20.00;71.50
55828;DHT22;41758;51.992;5.890;2022-09-24T09:28:19;20.00;71.60
55828;DHT22;41758;51.992;5.890;2022-09-24T09:33:42;20.10;71.80
55828;DHT22;41758;51.992;5.890;2022-09-24T09:39:21;20.00;71.30
55828;DHT22;41758;51.992;5.890;2022-09-24T09:41:55;20.10;71.50
55828;DHT22;41758;51.992;5.890;2022-09-24T09:44:28;20.00;71.70
55828;DHT22;41758;51.992;5.890;2022-09-24T09:47:03;20.10;71.80
55828;DHT22;41758;51.992;5.890;2022-09-24T09:49:34;20.10;71.70
55828;DHT22;41758;51.992;5.890;2022-09-24T09:52:09;20.10;71.80
55828;DHT22;41758;51.992;5.890;2022-09-24T09:54:38;20.10;71.90
55828;DHT22;41758;51.992;5.890;2022-09-24T09:57:05;20.10;71.90
55828;DHT22;41758;51.992;5.890;2022-09-24T09:59:33;20.10;71.80
55828;DHT22;41758;51.992;5.890;2022-09-24T10:02:00;20.10;71.70
55828;DHT22;41758;51.992;5.890;2022-09-24T10:04:36;20.10;70.90
55828;DHT22;41758;51.992;5.890;2022-09-24T10:07:15;20.00;70.20
55828;DHT22;41758;51.992;5.890;2022-09-24T10:09:42;20.00;70.90
55828;DHT22;41758;51.992;5.890;2022-09-24T10:14:38;20.00;71.50
55828;DHT22;41758;51.992;5.890;2022-09-24T10:17:03;20.10;71.60
55828;DHT22;41758;51.992;5.890;2022-09-24T10:19:34;20.10;71.60
55828;DHT22;41758;51.992;5.890;2022-09-24T10:22:13;20.10;71.70
55828;DHT22;41758;51.992;5.890;2022-09-24T10:24:42;20.20;71.80
55828;DHT22;41758;51.992;5.890;2022-09-24T10:27:12;20.10;71.90
55828;DHT22;41758;51.992;5.890;2022-09-24T10:29:39;20.20;71.90
55828;DHT22;41758;51.992;5.890;2022-09-24T10:32:25;20.20;72.00
55828;DHT22;41758;51.992;5.890;2022-09-24T10:35:02;20.20;71.50
55828;DHT22;41758;51.992;5.890;2022-09-24T10:37:30;20.10;71.70
55828;DHT22;41758;51.992;5.890;2022-09-24T10:40:01;20.10;71.90
55828;DHT22;41758;51.992;5.890;2022-09-24T10:42:29;20.10;72.00
55828;DHT22;41758;51.992;5.890;2022-09-24T10:44:58;20.10;72.00
55828;DHT22;41758;51.992;5.890;2022-09-24T10:52:40;20.20;72.20
55828;DHT22;41758;51.992;5.890;2022-09-24T11:14:53;20.20;72.20
55828;DHT22;41758;51.992;5.890;2022-09-24T11:17:36;20.20;71.90
55828;DHT22;41758;51.992;5.890;2022-09-24T11:26:41;20.00;71.00
55828;DHT22;41758;51.992;5.890;2022-09-24T11:34:27;19.90;70.60
55828;DHT22;41758;51.992;5.890;2022-09-24T11:40:20;20.00;71.10
55828;DHT22;41758;51.992;5.890;2022-09-24T11:54:03;19.90;70.80
55828;DHT22;41758;51.992;5.890;2022-09-24T12:04:50;20.00;71.60
55828;DHT22;41758;51.992;5.890;2022-09-24T12:07:25;20.00;71.50
55828;DHT22;41758;51.992;5.890;2022-09-24T12:10:04;19.90;70.10
55828;DHT22;41758;51.992;5.890;2022-09-24T12:12:36;19.90;70.50
55828;DHT22;41758;51.992;5.890;2022-09-24T12:15:21;19.90;70.10
55828;DHT22;41758;51.992;5.890;2022-09-24T12:18:25;19.90;70.40
55828;DHT22;41758;51.992;5.890;2022-09-24T12:21:09;19.90;70.50
55828;DHT22;41758;51.992;5.890;2022-09-24T12:23:40;20.00;70.90
55828;DHT22;41758;51.992;5.890;2022-09-24T12:26:08;20.00;71.20
55828;DHT22;41758;51.992;5.890;2022-09-24T12:28:59;20.00;70.50
55828;DHT22;41758;51.992;5.890;2022-09-24T12:32:01;20.00;70.90
55828;DHT22;41758;51.992;5.890;2022-09-24T12:37:38;20.10;71.60
55828;DHT22;41758;51.992;5.890;2022-09-24T12:43:12;20.10;71.50
55828;DHT22;41758;51.992;5.890;2022-09-24T12:45:41;20.10;71.60
55828;DHT22;41758;51.992;5.890;2022-09-24T12:48:13;20.10;71.70
55828;DHT22;41758;51.992;5.890;2022-09-24T12:50:40;20.10;71.80
55828;DHT22;41758;51.992;5.890;2022-09-24T12:53:22;20.10;70.70
55828;DHT22;41758;51.992;5.890;2022-09-24T12:55:58;20.10;71.00
55828;DHT22;41758;51.992;5.890;2022-09-24T12:58:40;20.10;71.30
55828;DHT22;41758;51.992;5.890;2022-09-24T13:01:28;20.10;71.50
55828;DHT22;41758;51.992;5.890;2022-09-24T13:06:33;20.00;70.20
55828;DHT22;41758;51.992;5.890;2022-09-24T13:09:00;20.00;70.50
55828;DHT22;41758;51.992;5.890;2022-09-24T13:11:33;20.00;70.90
55828;DHT22;41758;51.992;5.890;2022-09-24T13:16:42;20.00;71.40
55828;DHT22;41758;51.992;5.890;2022-09-24T13:19:36;20.10;71.60
55828;DHT22;41758;51.992;5.890;2022-09-24T13:22:16;20.00;70.60
55828;DHT22;41758;51.992;5.890;2022-09-24T13:24:52;20.00;70.80
55828;DHT22;41758;51.992;5.890;2022-09-24T13:32:43;19.90;70.80
55828;DHT22;41758;51.992;5.890;2022-09-24T13:35:15;19.90;70.80
55828;DHT22;41758;51.992;5.890;2022-09-24T13:37:48;19.90;71.20
55828;DHT22;41758;51.992;5.890;2022-09-24T13:40:18;20.00;71.40
55828;DHT22;41758;51.992;5.890;2022-09-24T13:45:27;20.00;71.60
55828;DHT22;41758;51.992;5.890;2022-09-24T13:47:59;20.00;71.70
55828;DHT22;41758;51.992;5.890;2022-09-24T13:50:32;20.00;71.40
55828;DHT22;41758;51.992;5.890;2022-09-24T13:55:33;20.00;71.50
55828;DHT22;41758;51.992;5.890;2022-09-24T13:57:59;20.00;71.60
55828;DHT22;41758;51.992;5.890;2022-09-24T14:00:27;20.00;71.70
55828;DHT22;41758;51.992;5.890;2022-09-24T14:03:21;20.00;71.70
55828;DHT22;41758;51.992;5.890;2022-09-24T14:05:49;20.00;71.70
55828;DHT22;41758;51.992;5.890;2022-09-24T14:08:17;19.90;71.40
55828;DHT22;41758;51.992;5.890;2022-09-24T14:10:45;19.90;71.50
55828;DHT22;41758;51.992;5.890;2022-09-24T14:13:23;19.90;71.20
55828;DHT22;41758;51.992;5.890;2022-09-24T14:15:51;19.90;71.20
55828;DHT22;41758;51.992;5.890;2022-09-24T14:18:17;19.80;71.20
55828;DHT22;41758;51.992;5.890;2022-09-24T14:20:43;19.90;71.60
55828;DHT22;41758;51.992;5.890;2022-09-24T14:23:18;19.80;71.30
55828;DHT22;41758;51.992;5.890;2022-09-24T14:25:45;19.80;71.00
55828;DHT22;41758;51.992;5.890;2022-09-24T14:28:12;19.80;70.50
55828;DHT22;41758;51.992;5.890;2022-09-24T14:30:47;19.80;70.30
55828;DHT22;41758;51.992;5.890;2022-09-24T14:33:15;19.80;70.90
55828;DHT22;41758;51.992;5.890;2022-09-24T14:35:47;19.70;69.80
55828;DHT22;41758;51.992;5.890;2022-09-24T14:38:24;19.80;70.40
55828;DHT22;41758;51.992;5.890;2022-09-24T14:41:20;19.70;70.40
55828;DHT22;41758;51.992;5.890;2022-09-24T14:43:52;19.80;70.50
55828;DHT22;41758;51.992;5.890;2022-09-24T14:46:25;19.80;70.70
55828;DHT22;41758;51.992;5.890;2022-09-24T14:49:15;19.80;70.80
55828;DHT22;41758;51.992;5.890;2022-09-24T14:51:56;19.80;71.00
55828;DHT22;41758;51.992;5.890;2022-09-24T14:54:39;19.90;71.20
55828;DHT22;41758;51.992;5.890;2022-09-24T14:57:23;19.90;71.20
55828;DHT22;41758;51.992;5.890;2022-09-24T14:59:49;19.90;71.30
55828;DHT22;41758;51.992;5.890;2022-09-24T15:04:46;19.90;71.20
55828;DHT22;41758;51.992;5.890;2022-09-24T15:07:32;19.90;71.50
55828;DHT22;41758;51.992;5.890;2022-09-24T15:09:59;19.90;71.50
55828;DHT22;41758;51.992;5.890;2022-09-24T15:12:37;19.90;71.50
55828;DHT22;41758;51.992;5.890;2022-09-24T15:17:45;20.00;71.40
55828;DHT22;41758;51.992;5.890;2022-09-24T15:20:11;20.00;71.50
55828;DHT22;41758;51.992;5.890;2022-09-24T15:22:38;20.00;71.50
55828;DHT22;41758;51.992;5.890;2022-09-24T15:25:04;20.00;71.50
55828;DHT22;41758;51.992;5.890;2022-09-24T15:27:32;20.00;71.40
55828;DHT22;41758;51.992;5.890;2022-09-24T15:30:00;19.90;71.50
55828;DHT22;41758;51.992;5.890;2022-09-24T15:32:29;19.90;71.50
55828;DHT22;41758;51.992;5.890;2022-09-24T15:34:56;19.90;71.40
55828;DHT22;41758;51.992;5.890;2022-09-24T15:37:24;20.00;71.20
55828;DHT22;41758;51.992;5.890;2022-09-24T15:39:52;19.90;71.20
55828;DHT22;41758;51.992;5.890;2022-09-24T15:42:21;19.90;70.50
55828;DHT22;41758;51.992;5.890;2022-09-24T15:44:47;19.90;71.10
55828;DHT22;41758;51.992;5.890;2022-09-24T15:47:16;19.90;71.20
55828;DHT22;41758;51.992;5.890;2022-09-24T15:49:42;20.00;71.40
55828;DHT22;41758;51.992;5.890;2022-09-24T15:52:21;20.00;71.30
55828;DHT22;41758;51.992;5.890;2022-09-24T15:54:55;20.00;71.30
55828;DHT22;41758;51.992;5.890;2022-09-24T15:57:22;19.90;71.10
55828;DHT22;41758;51.992;5.890;2022-09-24T15:59:48;19.90;71.30
55828;DHT22;41758;51.992;5.890;2022-09-24T16:02:22;20.00;71.30
55828;DHT22;41758;51.992;5.890;2022-09-24T16:04:49;19.90;71.10
55828;DHT22;41758;51.992;5.890;2022-09-24T16:07:15;20.00;71.10
55828;DHT22;41758;51.992;5.890;2022-09-24T16:09:42;19.90;71.20
55828;DHT22;41758;51.992;5.890;2022-09-24T16:12:13;19.90;71.00
55828;DHT22;41758;51.992;5.890;2022-09-24T16:14:39;19.90;71.10
55828;DHT22;41758;51.992;5.890;2022-09-24T16:17:05;19.90;70.40
55828;DHT22;41758;51.992;5.890;2022-09-24T16:19:30;19.90;70.40
55828;DHT22;41758;51.992;5.890;2022-09-24T16:21:56;19.80;70.30
55828;DHT22;41758;51.992;5.890;2022-09-24T16:24:24;19.90;70.50
55828;DHT22;41758;51.992;5.890;2022-09-24T16:26:50;19.90;70.80
55828;DHT22;41758;51.992;5.890;2022-09-24T16:29:16;19.90;70.80
55828;DHT22;41758;51.992;5.890;2022-09-24T16:31:43;19.90;70.80
55828;DHT22;41758;51.992;5.890;2022-09-24T16:34:12;19.90;70.80
55828;DHT22;41758;51.992;5.890;2022-09-24T16:36:38;19.90;70.90
55828;DHT22;41758;51.992;5.890;2022-09-24T16:39:04;19.90;70.80
55828;DHT22;41758;51.992;5.890;2022-09-24T16:41:30;19.90;70.70
55828;DHT22;41758;51.992;5.890;2022-09-24T16:44:02;19.80;70.00
55828;DHT22;41758;51.992;5.890;2022-09-24T16:46:28;19.80;70.30
55828;DHT22;41758;51.992;5.890;2022-09-24T16:48:54;19.80;70.20
55828;DHT22;41758;51.992;5.890;2022-09-24T16:51:20;19.80;70.00
55828;DHT22;41758;51.992;5.890;2022-09-24T16:53:46;19.80;70.00
55828;DHT22;41758;51.992;5.890;2022-09-24T16:56:13;19.80;70.40
55828;DHT22;41758;51.992;5.890;2022-09-24T16:58:41;19.80;70.30
55828;DHT22;41758;51.992;5.890;2022-09-24T17:01:09;19.80;70.40
55828;DHT22;41758;51.992;5.890;2022-09-24T17:03:35;19.80;70.10
55828;DHT22;41758;51.992;5.890;2022-09-24T17:06:02;19.80;70.00
55828;DHT22;41758;51.992;5.890;2022-09-24T17:08:33;19.70;70.10
55828;DHT22;41758;51.992;5.890;2022-09-24T17:11:18;19.80;70.30
55828;DHT22;41758;51.992;5.890;2022-09-24T17:13:44;19.80;70.20
55828;DHT22;41758;51.992;5.890;2022-09-24T17:16:13;19.80;70.30
55828;DHT22;41758;51.992;5.890;2022-09-24T17:18:39;19.80;70.20
55828;DHT22;41758;51.992;5.890;2022-09-24T17:21:09;19.80;70.20
55828;DHT22;41758;51.992;5.890;2022-09-24T17:23:36;19.70;70.20
55828;DHT22;41758;51.992;5.890;2022-09-24T17:26:14;19.70;69.80
55828;DHT22;41758;51.992;5.890;2022-09-24T17:28:43;19.70;69.80
55828;DHT22;41758;51.992;5.890;2022-09-24T17:31:14;19.60;69.50
55828;DHT22;41758;51.992;5.890;2022-09-24T17:33:39;19.60;69.10
55828;DHT22;41758;51.992;5.890;2022-09-24T17:36:07;19.60;69.00
55828;DHT22;41758;51.992;5.890;2022-09-24T17:38:35;19.50;68.70
55828;DHT22;41758;51.992;5.890;2022-09-24T17:41:09;19.50;69.00
55828;DHT22;41758;51.992;5.890;2022-09-24T17:43:36;19.40;69.10
55828;DHT22;41758;51.992;5.890;2022-09-24T17:48:34;19.40;69.10
55828;DHT22;41758;51.992;5.890;2022-09-24T17:51:02;19.40;68.90
55828;DHT22;41758;51.992;5.890;2022-09-24T17:53:33;19.40;68.90